createdAt,value
2017-11-03T00:00:12.074Z,17.50
2017-11-03T00:02:39.737Z,18.03
2017-11-03T00:05:07.382Z,17.57
2017-11-03T00:07:35.038Z,17.40
2017-11-03T00:10:02.643Z,17.77
2017-11-03T00:12:30.259Z,18.33
2017-11-03T00:14:57.921Z,20.00
2017-11-03T00:17:25.521Z,20.07
2017-11-03T00:19:53.512Z,20.63
2017-11-03T00:22:21.124Z,20.23
2017-11-03T00:24:48.762Z,21.70
2017-11-03T00:27:16.389Z,19.50
2017-11-03T00:29:44.007Z,19.53
2017-11-03T00:32:11.672Z,19.33
2017-11-03T00:34:39.310Z,18.70
2017-11-03T00:37:07.253Z,19.17
2017-11-03T00:39:35.330Z,20.80
2017-11-03T00:42:03.199Z,20.17
2017-11-03T00:44:30.844Z,20.20
2017-11-03T00:46:58.459Z,20.00
2017-11-03T00:49:26.080Z,19.60
2017-11-03T00:51:54.175Z,19.10
2017-11-03T00:54:22.860Z,19.70
2017-11-03T00:56:50.520Z,19.80
2017-11-03T00:59:18.144Z,16.83
2017-11-03T01:01:45.764Z,17.13
2017-11-03T01:04:13.401Z,17.33
2017-11-03T01:06:41.023Z,17.10
2017-11-03T01:09:08.665Z,17.83
2017-11-03T01:11:36.279Z,17.30
2017-11-03T01:14:03.889Z,16.17
2017-11-03T01:16:31.526Z,16.70
2017-11-03T01:18:59.141Z,17.00
2017-11-03T01:21:26.790Z,16.87
2017-11-03T01:23:54.415Z,14.70
2017-11-03T01:26:22.021Z,16.20
2017-11-03T01:28:49.662Z,15.80
2017-11-03T01:31:17.302Z,16.77
2017-11-03T01:33:44.950Z,17.10
2017-11-03T01:36:12.588Z,17.60
2017-11-03T01:38:40.777Z,16.70
2017-11-03T01:41:08.748Z,17.03
2017-11-03T01:43:36.374Z,17.20
2017-11-03T01:46:04.009Z,17.73
2017-11-03T01:48:31.652Z,17.37
2017-11-03T01:50:59.270Z,18.53
2017-11-03T01:53:26.934Z,17.70
2017-11-03T01:55:54.535Z,17.80
2017-11-03T01:58:22.192Z,17.33
2017-11-03T02:00:49.800Z,17.97
2017-11-03T02:03:17.417Z,18.17
2017-11-03T02:05:45.071Z,18.30
2017-11-03T02:08:12.681Z,19.10
2017-11-03T02:10:40.313Z,18.23
2017-11-03T02:13:07.924Z,18.60
2017-11-03T02:15:35.529Z,19.17
2017-11-03T02:18:03.310Z,19.03
2017-11-03T02:20:30.996Z,20.63
2017-11-03T02:22:58.944Z,20.10
2017-11-03T02:25:27.942Z,23.47
2017-11-03T02:27:55.706Z,21.00
2017-11-03T02:30:23.337Z,21.00
2017-11-03T02:32:50.932Z,21.40
2017-11-03T02:35:18.875Z,19.80
2017-11-03T02:37:46.483Z,22.57
2017-11-03T02:40:14.101Z,20.37
2017-11-03T02:42:41.734Z,22.47
2017-11-03T02:45:09.626Z,20.90
2017-11-03T02:47:37.276Z,22.33
2017-11-03T02:50:05.160Z,22.27
2017-11-03T02:52:32.789Z,20.80
2017-11-03T02:55:00.418Z,21.50
2017-11-03T03:00:00.354Z,22.60
2017-11-03T03:02:27.944Z,20.53
2017-11-03T03:04:55.584Z,20.87
2017-11-03T03:07:23.216Z,20.80
2017-11-03T03:09:50.822Z,21.97
2017-11-03T03:12:18.736Z,20.73
2017-11-03T03:14:46.608Z,21.40
2017-11-03T03:17:14.218Z,21.77
2017-11-03T03:19:42.234Z,22.57
2017-11-03T03:22:09.852Z,20.87
2017-11-03T03:24:37.514Z,21.37
2017-11-03T03:27:05.114Z,22.97
2017-11-03T03:29:32.726Z,20.97
2017-11-03T03:32:00.364Z,20.70
2017-11-03T03:34:28.030Z,20.43
2017-11-03T03:36:55.665Z,22.70
2017-11-03T03:39:23.271Z,20.33
2017-11-03T03:41:50.884Z,20.50
2017-11-03T03:44:18.877Z,20.10
2017-11-03T03:46:46.486Z,23.40
2017-11-03T03:49:14.401Z,20.37
2017-11-03T03:51:42.013Z,21.50
2017-11-03T03:54:09.648Z,22.10
2017-11-03T03:56:37.287Z,20.63
2017-11-03T03:59:04.900Z,20.23
2017-11-03T04:01:32.589Z,19.77
2017-11-03T04:04:00.189Z,20.90
2017-11-03T04:06:27.796Z,20.90
2017-11-03T04:08:55.420Z,21.17
2017-11-03T04:11:23.378Z,21.23
2017-11-03T04:13:51.018Z,22.47
2017-11-03T04:16:18.622Z,20.90
2017-11-03T04:18:46.230Z,20.40
2017-11-03T04:21:13.868Z,21.50
2017-11-03T04:23:41.802Z,22.17
2017-11-03T04:26:11.106Z,22.27
2017-11-03T04:28:38.799Z,22.40
2017-11-03T04:31:06.507Z,22.03
2017-11-03T04:33:34.174Z,23.93
2017-11-03T04:36:01.768Z,22.60
2017-11-03T04:38:29.421Z,22.73
2017-11-03T04:40:57.035Z,21.43
2017-11-03T04:43:24.640Z,24.13
2017-11-03T04:45:52.593Z,22.13
2017-11-03T04:48:20.565Z,23.20
2017-11-03T04:50:48.534Z,23.87
2017-11-03T04:53:16.402Z,23.70
2017-11-03T04:55:44.033Z,23.83
2017-11-03T04:58:11.668Z,23.87
2017-11-03T05:00:39.291Z,22.90
2017-11-03T05:03:07.256Z,22.63
2017-11-03T05:05:34.862Z,24.60
2017-11-03T05:08:02.450Z,22.70
2017-11-03T05:10:30.096Z,23.63
2017-11-03T05:12:58.119Z,22.60
2017-11-03T05:15:25.781Z,22.40
2017-11-03T05:17:53.388Z,23.30
2017-11-03T05:20:21.010Z,21.07
2017-11-03T05:22:48.651Z,21.57
2017-11-03T05:25:16.270Z,21.10
2017-11-03T05:27:43.921Z,20.33
2017-11-03T05:30:11.514Z,20.27
2017-11-03T05:32:39.424Z,21.07
2017-11-03T05:35:07.061Z,20.77
2017-11-03T05:37:34.667Z,20.83
2017-11-03T05:40:02.277Z,22.10
2017-11-03T05:42:29.975Z,21.70
2017-11-03T05:44:57.588Z,22.60
2017-11-03T05:47:25.210Z,20.93
2017-11-03T05:49:52.881Z,22.27
2017-11-03T05:52:20.481Z,21.93
2017-11-03T05:54:48.109Z,22.17
2017-11-03T05:57:15.767Z,22.03
2017-11-03T05:59:43.364Z,20.90
2017-11-03T06:02:11.005Z,21.60
2017-11-03T06:04:38.692Z,20.97
2017-11-03T06:07:08.068Z,20.83
2017-11-03T06:09:35.717Z,20.13
2017-11-03T06:12:03.692Z,21.00
2017-11-03T06:14:31.758Z,20.97
2017-11-03T06:16:59.365Z,21.43
2017-11-03T06:19:26.990Z,21.03
2017-11-03T06:21:54.655Z,22.10
2017-11-03T06:24:22.302Z,22.50
2017-11-03T06:26:49.969Z,21.60
2017-11-03T06:29:17.570Z,23.27
2017-11-03T06:31:45.505Z,23.10
2017-11-03T06:34:13.173Z,22.10
2017-11-03T06:36:40.828Z,23.43
2017-11-03T06:39:08.489Z,22.73
2017-11-03T06:41:36.090Z,23.47
2017-11-03T06:44:03.697Z,22.73
2017-11-03T06:46:31.681Z,25.13
2017-11-03T06:48:59.307Z,25.30
2017-11-03T06:51:27.005Z,25.10
2017-11-03T06:53:54.634Z,25.40
2017-11-03T06:56:22.238Z,24.60
2017-11-03T06:58:49.880Z,25.13
2017-11-03T07:01:17.564Z,26.20
2017-11-03T07:03:45.251Z,25.20
2017-11-03T07:06:12.916Z,24.10
2017-11-03T07:08:40.526Z,25.90
2017-11-03T07:11:08.391Z,26.60
2017-11-03T07:13:36.003Z,25.60
2017-11-03T07:16:03.664Z,26.90
2017-11-03T07:18:31.290Z,23.90
2017-11-03T07:20:58.937Z,24.60
2017-11-03T07:23:26.596Z,24.73
2017-11-03T07:25:54.223Z,22.90
2017-11-03T07:28:21.921Z,24.47
2017-11-03T07:30:49.590Z,24.23
2017-11-03T07:33:17.277Z,22.40
2017-11-03T07:35:44.928Z,23.87
2017-11-03T07:38:12.567Z,23.97
2017-11-03T07:40:40.237Z,23.60
2017-11-03T07:43:07.885Z,23.30
2017-11-03T07:45:35.499Z,22.47
2017-11-03T07:48:03.133Z,24.10
2017-11-03T07:50:31.028Z,21.10
2017-11-03T07:52:58.745Z,21.03
2017-11-03T07:55:26.405Z,21.77
2017-11-03T07:57:54.013Z,20.90
2017-11-03T08:00:24.189Z,21.40
2017-11-03T08:02:51.845Z,20.37
2017-11-03T08:05:19.497Z,20.10
2017-11-03T08:07:47.524Z,18.80
2017-11-03T08:10:15.157Z,18.70
2017-11-03T08:12:42.856Z,19.90
2017-11-03T08:15:10.468Z,21.40
2017-11-03T08:17:38.232Z,19.90
2017-11-03T08:20:06.718Z,21.00
2017-11-03T08:22:34.626Z,19.73
2017-11-03T08:25:02.346Z,20.00
2017-11-03T08:27:29.959Z,19.97
2017-11-03T08:29:57.653Z,20.53
2017-11-03T08:32:25.595Z,20.47
2017-11-03T08:34:53.197Z,20.33
2017-11-03T08:37:20.861Z,18.90
2017-11-03T08:39:48.466Z,19.07
2017-11-03T08:42:16.139Z,19.07
2017-11-03T08:44:43.749Z,19.20
2017-11-03T08:47:11.383Z,17.80
2017-11-03T08:49:39.005Z,18.10
2017-11-03T08:52:06.912Z,18.13
2017-11-03T08:54:34.577Z,18.67
2017-11-03T08:57:02.263Z,19.47
2017-11-03T08:59:29.921Z,18.70
2017-11-03T09:01:57.813Z,18.70
2017-11-03T09:04:25.451Z,18.67
2017-11-03T09:06:53.134Z,18.40
2017-11-03T09:09:20.759Z,18.43
2017-11-03T09:11:48.386Z,19.53
2017-11-03T09:14:16.025Z,18.10
2017-11-03T09:16:43.946Z,20.43
2017-11-03T09:19:11.598Z,18.90
2017-11-03T09:21:39.221Z,19.73
2017-11-03T09:24:06.866Z,17.40
2017-11-03T09:26:34.506Z,18.33
2017-11-03T09:29:02.154Z,16.80
2017-11-03T09:31:29.885Z,17.13
2017-11-03T09:33:57.492Z,17.13
2017-11-03T09:36:25.117Z,16.83
2017-11-03T09:38:52.788Z,17.50
2017-11-03T09:41:20.447Z,15.10
2017-11-03T09:43:48.089Z,15.23
2017-11-03T09:46:15.694Z,15.30
2017-11-03T09:48:43.331Z,15.17
2017-11-03T09:51:10.971Z,14.33
2017-11-03T09:53:38.590Z,14.20
2017-11-03T09:56:06.541Z,13.03
2017-11-03T09:58:34.137Z,13.33
2017-11-03T10:01:01.746Z,12.47
2017-11-03T10:03:29.377Z,13.97
2017-11-03T10:05:57.009Z,13.20
2017-11-03T10:08:24.664Z,12.90
2017-11-03T10:10:52.283Z,13.53
2017-11-03T10:13:19.946Z,14.60
2017-11-03T10:15:47.599Z,12.10
2017-11-03T10:18:15.211Z,12.37
2017-11-03T10:20:42.852Z,12.17
2017-11-03T10:23:10.479Z,12.80
2017-11-03T10:25:38.095Z,12.23
2017-11-03T10:28:05.756Z,12.30
2017-11-03T10:30:33.340Z,13.93
2017-11-03T10:33:00.985Z,12.27
2017-11-03T10:35:28.847Z,12.17
2017-11-03T10:37:56.446Z,12.57
2017-11-03T10:40:24.113Z,12.17
2017-11-03T10:42:52.045Z,12.67
2017-11-03T10:45:20.030Z,12.30
2017-11-03T10:47:47.833Z,12.17
2017-11-03T10:50:15.498Z,11.50
2017-11-03T10:52:43.138Z,11.40
2017-11-03T10:55:11.124Z,12.07
2017-11-03T10:57:39.057Z,11.50
2017-11-03T11:00:06.858Z,11.80
2017-11-03T11:02:34.499Z,11.53
2017-11-03T11:05:02.206Z,12.03
2017-11-03T11:07:29.851Z,11.80
2017-11-03T11:09:57.527Z,12.60
2017-11-03T11:12:25.149Z,10.97
2017-11-03T11:14:52.752Z,11.77
2017-11-03T11:17:20.375Z,12.83
2017-11-03T11:19:47.978Z,11.17
2017-11-03T11:22:17.158Z,11.20
2017-11-03T11:24:44.776Z,11.30
2017-11-03T11:27:13.105Z,12.50
2017-11-03T11:29:40.752Z,11.80
2017-11-03T11:32:08.385Z,11.37
2017-11-03T11:34:36.036Z,11.43
2017-11-03T11:37:03.641Z,12.57
2017-11-03T11:39:31.757Z,11.57
2017-11-03T11:41:59.496Z,10.43
2017-11-03T11:44:27.092Z,11.03
2017-11-03T11:46:54.748Z,10.53
2017-11-03T11:49:22.835Z,10.50
2017-11-03T11:51:50.547Z,10.67
2017-11-03T11:54:18.572Z,11.40
2017-11-03T11:56:46.201Z,10.97
2017-11-03T11:59:13.920Z,10.53
2017-11-03T12:01:41.524Z,10.50
2017-11-03T12:04:09.506Z,11.03
2017-11-03T12:06:37.155Z,10.90
2017-11-03T12:09:04.819Z,10.70
2017-11-03T12:11:32.599Z,10.97
2017-11-03T12:14:00.230Z,10.50
2017-11-03T12:16:27.834Z,11.20
2017-11-03T12:18:55.477Z,11.63
2017-11-03T12:21:24.103Z,10.90
2017-11-03T12:23:51.844Z,10.77
2017-11-03T12:26:20.253Z,11.30
2017-11-03T12:28:48.826Z,11.07
2017-11-03T12:31:16.469Z,10.90
2017-11-03T12:33:46.161Z,12.07
2017-11-03T12:36:13.851Z,12.20
2017-11-03T12:38:41.495Z,10.80
2017-11-03T12:41:09.389Z,11.80
2017-11-03T12:43:37.268Z,10.50
2017-11-03T12:46:05.330Z,11.57
2017-11-03T12:48:32.969Z,11.23
2017-11-03T12:51:00.603Z,10.00
2017-11-03T12:53:28.229Z,11.27
2017-11-03T12:55:55.851Z,10.53
2017-11-03T12:58:23.453Z,11.73
2017-11-03T13:00:51.103Z,10.57
2017-11-03T13:03:18.691Z,11.47
2017-11-03T13:05:46.857Z,11.63
2017-11-03T13:08:14.711Z,11.27
2017-11-03T13:10:42.415Z,12.00
2017-11-03T13:13:10.085Z,10.70
2017-11-03T13:15:38.078Z,11.23
2017-11-03T13:18:05.722Z,11.30
2017-11-03T13:20:34.094Z,12.00
2017-11-03T13:23:02.021Z,11.20
2017-11-03T13:25:29.855Z,11.40
2017-11-03T13:27:57.488Z,10.93
2017-11-03T13:30:25.148Z,11.20
2017-11-03T13:32:52.736Z,11.90
2017-11-03T13:35:20.747Z,10.50
2017-11-03T13:37:48.388Z,10.13
2017-11-03T13:40:16.006Z,10.60
2017-11-03T13:42:43.667Z,11.30
2017-11-03T13:45:12.684Z,10.60
2017-11-03T13:47:40.335Z,10.60
2017-11-03T13:50:07.986Z,10.30
2017-11-03T13:52:35.592Z,10.40
2017-11-03T13:55:03.279Z,10.60
2017-11-03T13:57:30.928Z,11.10
2017-11-03T13:59:58.587Z,10.70
2017-11-03T14:02:26.249Z,10.53
2017-11-03T14:04:53.852Z,10.50
2017-11-03T14:07:21.514Z,10.60
2017-11-03T14:09:49.472Z,10.57
2017-11-03T14:12:17.146Z,11.30
2017-11-03T14:14:45.267Z,10.90
2017-11-03T14:17:12.883Z,11.27
2017-11-03T14:19:40.561Z,10.53
2017-11-03T14:22:08.201Z,11.70
2017-11-03T14:24:35.877Z,11.70
2017-11-03T14:27:03.504Z,11.40
2017-11-03T14:29:32.719Z,11.50
2017-11-03T14:32:00.413Z,11.50
2017-11-03T14:34:28.048Z,12.30
2017-11-03T14:36:55.693Z,12.30
2017-11-03T14:39:23.292Z,12.03
2017-11-03T14:41:51.249Z,12.13
2017-11-03T14:44:18.893Z,11.83
2017-11-03T14:46:46.493Z,12.10
2017-11-03T14:49:14.138Z,12.23
2017-11-03T14:51:41.781Z,12.63
2017-11-03T14:54:09.658Z,11.83
2017-11-03T14:56:37.350Z,12.20
2017-11-03T14:59:04.977Z,11.80
2017-11-03T15:01:32.648Z,12.30
2017-11-03T15:04:00.332Z,12.50
2017-11-03T15:06:27.943Z,12.53
2017-11-03T15:08:55.590Z,11.60
2017-11-03T15:11:23.208Z,12.10
2017-11-03T15:13:51.161Z,12.27
2017-11-03T15:16:18.813Z,12.90
2017-11-03T15:18:46.478Z,12.90
2017-11-03T15:21:14.150Z,12.80
2017-11-03T15:23:41.983Z,12.93
2017-11-03T15:26:09.886Z,12.60
2017-11-03T15:28:37.845Z,13.00
2017-11-03T15:31:05.720Z,12.90
2017-11-03T15:33:33.429Z,13.23
2017-11-03T15:36:01.013Z,12.67
2017-11-03T15:38:28.690Z,13.43
2017-11-03T15:40:56.286Z,12.80
2017-11-03T15:43:23.909Z,13.47
2017-11-03T15:45:52.022Z,13.70
2017-11-03T15:48:19.648Z,14.20
2017-11-03T15:50:47.297Z,13.00
2017-11-03T15:53:14.894Z,13.70
2017-11-03T15:55:42.498Z,13.20
2017-11-03T15:58:10.174Z,14.20
2017-11-03T16:00:37.809Z,13.40
2017-11-03T16:03:05.442Z,13.60
2017-11-03T16:05:33.209Z,14.30
2017-11-03T16:08:00.845Z,14.23
2017-11-03T16:10:28.485Z,13.97
2017-11-03T16:12:56.116Z,14.47
2017-11-03T16:15:23.765Z,14.10
2017-11-03T16:17:51.388Z,14.40
2017-11-03T16:20:19.065Z,14.47
2017-11-03T16:22:46.733Z,14.83
2017-11-03T16:25:14.353Z,14.00
2017-11-03T16:27:42.385Z,14.27
2017-11-03T16:30:09.986Z,14.40
2017-11-03T16:32:37.605Z,15.47
2017-11-03T16:35:05.241Z,14.10
2017-11-03T16:37:32.841Z,15.70
2017-11-03T16:40:00.465Z,14.97
2017-11-03T16:42:28.063Z,14.80
2017-11-03T16:44:56.806Z,16.00
2017-11-03T16:47:24.442Z,14.70
2017-11-03T16:49:52.372Z,14.67
2017-11-03T16:52:25.806Z,16.03
2017-11-03T16:54:54.108Z,15.30
2017-11-03T16:57:22.660Z,16.20
2017-11-03T16:59:50.732Z,16.60
2017-11-03T17:02:18.403Z,16.33
2017-11-03T17:04:46.053Z,15.67
2017-11-03T17:07:14.009Z,17.00
2017-11-03T17:09:41.678Z,18.33
2017-11-03T17:12:09.341Z,16.67
2017-11-03T17:14:37.003Z,16.23
2017-11-03T17:17:04.665Z,16.87
2017-11-03T17:19:32.344Z,15.97
2017-11-03T17:22:00.052Z,17.63
2017-11-03T17:24:27.651Z,18.30
2017-11-03T17:26:55.265Z,18.50
2017-11-03T17:29:22.908Z,17.43
2017-11-03T17:31:50.505Z,18.47
2017-11-03T17:34:18.602Z,18.40
2017-11-03T17:36:46.505Z,19.77
2017-11-03T17:39:14.391Z,19.80
2017-11-03T17:41:42.074Z,19.20
2017-11-03T17:44:09.711Z,20.83
2017-11-03T17:46:37.397Z,19.87
2017-11-03T17:49:05.043Z,19.83
2017-11-03T17:51:32.680Z,19.23
2017-11-03T17:54:00.333Z,19.13
2017-11-03T17:56:27.929Z,19.63
2017-11-03T17:58:55.950Z,19.77
2017-11-03T18:01:23.568Z,19.50
2017-11-03T18:03:51.489Z,19.47
2017-11-03T18:06:19.124Z,20.93
2017-11-03T18:08:46.729Z,19.63
2017-11-03T18:11:15.060Z,20.47
2017-11-03T18:13:43.062Z,19.13
2017-11-03T18:16:10.660Z,19.57
2017-11-03T18:18:39.198Z,19.07
2017-11-03T18:21:06.829Z,20.83
2017-11-03T18:23:34.757Z,20.77
2017-11-03T18:26:02.395Z,21.20
2017-11-03T18:28:29.991Z,20.53
2017-11-03T18:30:57.718Z,21.07
2017-11-03T18:33:25.318Z,20.80
2017-11-03T18:35:52.957Z,20.30
2017-11-03T18:38:20.639Z,22.13
2017-11-03T18:40:48.366Z,20.57
2017-11-03T18:43:16.043Z,22.03
2017-11-03T18:45:43.639Z,21.13
2017-11-03T18:48:11.597Z,20.70
2017-11-03T18:50:39.226Z,19.93
2017-11-03T18:53:06.912Z,21.90
2017-11-03T18:55:34.914Z,22.40
2017-11-03T18:58:02.575Z,21.43
2017-11-03T19:00:30.235Z,21.10
2017-11-03T19:02:57.873Z,20.13
2017-11-03T19:05:25.520Z,20.63
2017-11-03T19:07:53.171Z,20.43
2017-11-03T19:10:20.803Z,20.67
2017-11-03T19:12:48.477Z,20.20
2017-11-03T19:15:16.072Z,20.63
2017-11-03T19:17:43.732Z,19.73
2017-11-03T19:20:11.439Z,20.70
2017-11-03T19:22:39.107Z,20.60
2017-11-03T19:25:06.764Z,21.30
2017-11-03T19:27:34.583Z,21.40
2017-11-03T19:30:02.237Z,21.10
2017-11-03T19:32:29.922Z,22.50
2017-11-03T19:35:01.823Z,21.60
2017-11-03T19:37:29.498Z,21.53
2017-11-03T19:40:14.055Z,22.43
2017-11-03T19:42:41.765Z,21.37
2017-11-03T19:45:09.435Z,21.00
2017-11-03T19:47:37.161Z,23.10
2017-11-03T19:50:04.852Z,22.17
2017-11-03T19:52:32.514Z,22.70
2017-11-03T19:55:00.649Z,21.97
2017-11-03T19:57:28.291Z,22.77
2017-11-03T19:59:55.922Z,23.83
2017-11-03T20:02:23.564Z,22.50
2017-11-03T20:04:51.639Z,22.73
2017-11-03T20:07:19.300Z,23.97
2017-11-03T20:09:47.385Z,22.30
2017-11-03T20:12:15.073Z,23.87
2017-11-03T20:14:42.701Z,23.87
2017-11-03T20:17:10.321Z,24.00
2017-11-03T20:19:38.462Z,24.17
2017-11-03T20:22:06.078Z,25.13
2017-11-03T20:24:33.979Z,23.73
2017-11-03T20:27:01.621Z,24.53
2017-11-03T20:29:29.512Z,25.93
2017-11-03T20:31:57.145Z,23.00
2017-11-03T20:34:24.808Z,26.50
2017-11-03T20:36:52.469Z,26.30
2017-11-03T20:39:20.372Z,26.50
2017-11-03T20:41:48.019Z,25.90
2017-11-03T20:44:15.661Z,26.47
2017-11-03T20:46:43.274Z,25.03
2017-11-03T20:49:10.878Z,25.37
2017-11-03T20:51:39.123Z,26.50
2017-11-03T20:54:07.056Z,24.67
2017-11-03T20:56:34.709Z,25.23
2017-11-03T20:59:03.185Z,25.50
2017-11-03T21:01:30.775Z,26.20
2017-11-03T21:03:58.389Z,30.27
2017-11-03T21:06:25.983Z,29.67
2017-11-03T21:08:53.820Z,26.57
2017-11-03T21:11:21.471Z,24.97
2017-11-03T21:13:49.064Z,26.23
2017-11-03T21:16:16.699Z,26.37
2017-11-03T21:18:44.354Z,26.37
2017-11-03T21:21:12.035Z,26.03
2017-11-03T21:23:39.648Z,26.90
2017-11-03T21:26:07.274Z,27.00
2017-11-03T21:28:34.990Z,27.13
2017-11-03T21:31:02.649Z,26.40
2017-11-03T21:33:30.332Z,28.27
2017-11-03T21:35:57.949Z,35.70
2017-11-03T21:38:25.590Z,34.53
2017-11-03T21:40:53.321Z,33.00
2017-11-03T21:43:20.942Z,26.00
2017-11-03T21:45:48.542Z,39.97
2017-11-03T21:48:17.709Z,33.67
2017-11-03T21:50:45.396Z,28.13
2017-11-03T21:53:13.070Z,27.27
2017-11-03T21:55:40.704Z,27.90
2017-11-03T21:58:08.354Z,27.10
2017-11-03T22:00:35.984Z,28.00
2017-11-03T22:03:03.696Z,27.60
2017-11-03T22:05:31.286Z,28.17
2017-11-03T22:07:59.210Z,28.10
2017-11-03T22:10:26.837Z,28.03
2017-11-03T22:12:54.462Z,27.87
2017-11-03T22:15:22.091Z,27.57
2017-11-03T22:17:49.693Z,29.00
2017-11-03T22:20:17.349Z,28.93
2017-11-03T22:22:45.073Z,29.13
2017-11-03T22:25:12.700Z,31.20
2017-11-03T22:27:40.332Z,30.83
2017-11-03T22:30:07.917Z,29.40
2017-11-03T22:32:35.557Z,29.30
2017-11-03T22:35:03.146Z,29.57
2017-11-03T22:37:31.060Z,29.40
2017-11-03T22:39:58.932Z,30.17
2017-11-03T22:42:26.543Z,28.77
2017-11-03T22:44:54.186Z,28.40
2017-11-03T22:47:21.784Z,30.97
2017-11-03T22:49:49.429Z,30.30
2017-11-03T22:52:17.109Z,30.70
2017-11-03T22:54:44.721Z,31.53
2017-11-03T22:57:12.687Z,30.57
2017-11-03T22:59:40.813Z,35.60
2017-11-03T23:02:08.509Z,32.33
2017-11-03T23:04:36.113Z,32.23
2017-11-03T23:07:03.769Z,31.20
2017-11-03T23:09:31.424Z,31.50
2017-11-03T23:11:59.025Z,32.67
2017-11-03T23:14:26.653Z,30.40
2017-11-03T23:16:54.249Z,29.67
2017-11-03T23:19:21.863Z,31.47
2017-11-03T23:21:55.866Z,32.70
2017-11-03T23:24:23.837Z,29.43
2017-11-03T23:26:51.502Z,31.23
2017-11-03T23:29:19.878Z,32.07
2017-11-03T23:31:47.454Z,28.77
2017-11-03T23:34:15.507Z,27.97
2017-11-03T23:36:43.088Z,30.33
2017-11-03T23:39:10.733Z,29.60
2017-11-03T23:41:38.736Z,30.50
2017-11-03T23:44:06.722Z,29.70
2017-11-03T23:46:34.381Z,27.80
2017-11-03T23:49:01.995Z,30.10
2017-11-03T23:51:29.671Z,28.90
2017-11-03T23:53:57.493Z,30.23
2017-11-03T23:56:25.243Z,29.00
2017-11-03T23:58:53.065Z,28.80
